sensor_id;sensor_type;location;lat;lon;timestamp;pressure;altitude;pressure_sealevel;temperature;humidity
26657;BME280;14279;50.010;8.260;2024-03-08T00:00:34;100564.69;;;6.47;59.86
26657;BME280;14279;50.010;8.260;2024-03-08T00:03:00;100563.66;;;6.53;59.67
26657;BME280;14279;50.010;8.260;2024-03-08T00:05:28;100555.84;;;6.55;59.73
26657;BME280;14279;50.010;8.260;2024-03-08T00:07:53;100556.31;;;6.38;59.71
26657;BME280;14279;50.010;8.260;2024-03-08T00:10:18;100552.03;;;6.37;59.80
26657;BME280;14279;50.010;8.260;2024-03-08T00:12:46;100556.88;;;6.14;59.87
26657;BME280;14279;50.010;8.260;2024-03-08T00:15:16;100552.16;;;5.94;60.80
26657;BME280;14279;50.010;8.260;2024-03-08T00:17:41;100555.22;;;6.12;59.96
26657;BME280;14279;50.010;8.260;2024-03-08T00:20:07;100556.88;;;6.14;60.28
26657;BME280;14279;50.010;8.260;2024-03-08T00:22:36;100546.81;;;6.02;59.88
26657;BME280;14279;50.010;8.260;2024-03-08T00:25:02;100543.91;;;5.80;60.45
26657;BME280;14279;50.010;8.260;2024-03-08T00:27:28;100544.81;;;5.77;60.60
26657;BME280;14279;50.010;8.260;2024-03-08T00:29:57;100547.34;;;5.79;60.37
26657;BME280;14279;50.010;8.260;2024-03-08T00:32:22;100550.69;;;5.84;60.71
26657;BME280;14279;50.010;8.260;2024-03-08T00:34:50;100542.16;;;5.80;60.69
26657;BME280;14279;50.010;8.260;2024-03-08T00:37:17;100539.50;;;5.83;61.20
26657;BME280;14279;50.010;8.260;2024-03-08T00:39:42;100534.00;;;5.61;61.02
26657;BME280;14279;50.010;8.260;2024-03-08T00:42:08;100537.53;;;5.57;61.17
26657;BME280;14279;50.010;8.260;2024-03-08T00:44:33;100529.72;;;5.59;61.08
26657;BME280;14279;50.010;8.260;2024-03-08T00:46:58;100530.78;;;5.50;60.67
26657;BME280;14279;50.010;8.260;2024-03-08T00:49:24;100532.47;;;5.52;60.87
26657;BME280;14279;50.010;8.260;2024-03-08T00:51:49;100523.34;;;5.36;61.10
26657;BME280;14279;50.010;8.260;2024-03-08T00:54:14;100529.44;;;5.32;61.06
26657;BME280;14279;50.010;8.260;2024-03-08T00:56:45;100524.28;;;5.32;61.08
26657;BME280;14279;50.010;8.260;2024-03-08T00:59:11;100522.75;;;5.24;61.01
26657;BME280;14279;50.010;8.260;2024-03-08T01:01:36;100522.75;;;5.24;61.15
26657;BME280;14279;50.010;8.260;2024-03-08T01:04:01;100523.69;;;5.19;61.73
26657;BME280;14279;50.010;8.260;2024-03-08T01:06:27;100518.66;;;5.14;61.56
26657;BME280;14279;50.010;8.260;2024-03-08T01:08:52;100503.03;;;5.20;60.80
26657;BME280;14279;50.010;8.260;2024-03-08T01:11:18;100523.78;;;5.16;61.10
26657;BME280;14279;50.010;8.260;2024-03-08T01:13:44;100518.00;;;5.04;61.27
26657;BME280;14279;50.010;8.260;2024-03-08T01:16:12;100522.16;;;5.10;61.47
26657;BME280;14279;50.010;8.260;2024-03-08T01:18:37;100508.72;;;4.95;61.34
26657;BME280;14279;50.010;8.260;2024-03-08T01:21:03;100504.31;;;5.01;61.30
26657;BME280;14279;50.010;8.260;2024-03-08T01:23:28;100501.75;;;5.01;61.56
26657;BME280;14279;50.010;8.260;2024-03-08T01:25:54;100495.03;;;4.92;61.85
26657;BME280;14279;50.010;8.260;2024-03-08T01:28:23;100495.78;;;4.97;62.04
26657;BME280;14279;50.010;8.260;2024-03-08T01:30:49;100491.44;;;4.99;62.02
26657;BME280;14279;50.010;8.260;2024-03-08T01:33:20;100490.81;;;4.88;61.96
26657;BME280;14279;50.010;8.260;2024-03-08T01:35:47;100488.13;;;4.92;62.16
26657;BME280;14279;50.010;8.260;2024-03-08T01:38:12;100485.59;;;4.91;62.21
26657;BME280;14279;50.010;8.260;2024-03-08T01:40:38;100484.84;;;4.84;63.00
26657;BME280;14279;50.010;8.260;2024-03-08T01:45:43;100483.31;;;4.75;63.15
26657;BME280;14279;50.010;8.260;2024-03-08T01:48:08;100488.53;;;4.74;63.45
26657;BME280;14279;50.010;8.260;2024-03-08T01:50:33;100480.06;;;4.65;63.44
26657;BME280;14279;50.010;8.260;2024-03-08T01:52:59;100478.31;;;4.69;63.64
26657;BME280;14279;50.010;8.260;2024-03-08T01:55:25;100482.50;;;4.73;63.65
26657;BME280;14279;50.010;8.260;2024-03-08T01:57:51;100475.72;;;4.69;63.69
26657;BME280;14279;50.010;8.260;2024-03-08T02:00:17;100470.69;;;4.61;64.03
26657;BME280;14279;50.010;8.260;2024-03-08T02:02:46;100463.06;;;4.57;64.12
26657;BME280;14279;50.010;8.260;2024-03-08T02:05:12;100460.53;;;4.54;64.40
26657;BME280;14279;50.010;8.260;2024-03-08T02:07:41;100456.47;;;4.43;64.77
26657;BME280;14279;50.010;8.260;2024-03-08T02:10:09;100453.69;;;4.53;64.56
26657;BME280;14279;50.010;8.260;2024-03-08T02:12:34;100453.09;;;4.38;65.02
26657;BME280;14279;50.010;8.260;2024-03-08T02:14:59;100450.44;;;4.43;65.01
26657;BME280;14279;50.010;8.260;2024-03-08T02:17:25;100447.13;;;4.36;65.05
26657;BME280;14279;50.010;8.260;2024-03-08T02:19:50;100450.47;;;4.41;64.96
26657;BME280;14279;50.010;8.260;2024-03-08T02:22:15;100454.97;;;4.30;65.13
26657;BME280;14279;50.010;8.260;2024-03-08T02:24:41;100447.28;;;4.28;65.21
26657;BME280;14279;50.010;8.260;2024-03-08T02:27:06;100445.59;;;4.27;65.31
26657;BME280;14279;50.010;8.260;2024-03-08T02:29:33;100449.81;;;4.31;65.43
26657;BME280;14279;50.010;8.260;2024-03-08T02:31:59;100442.28;;;4.19;65.93
26657;BME280;14279;50.010;8.260;2024-03-08T02:34:24;100436.28;;;4.18;65.67
26657;BME280;14279;50.010;8.260;2024-03-08T02:36:50;100439.56;;;4.27;65.75
26657;BME280;14279;50.010;8.260;2024-03-08T02:39:15;100435.38;;;4.21;66.17
26657;BME280;14279;50.010;8.260;2024-03-08T02:41:41;100432.81;;;4.21;66.00
26657;BME280;14279;50.010;8.260;2024-03-08T02:44:07;100429.53;;;4.11;66.23
26657;BME280;14279;50.010;8.260;2024-03-08T02:46:32;100427.03;;;4.08;66.32
26657;BME280;14279;50.010;8.260;2024-03-08T02:48:58;100420.94;;;4.12;66.39
26657;BME280;14279;50.010;8.260;2024-03-08T02:51:23;100424.69;;;3.94;66.68
26657;BME280;14279;50.010;8.260;2024-03-08T02:53:48;100421.22;;;3.97;66.57
26657;BME280;14279;50.010;8.260;2024-03-08T02:56:16;100416.91;;;3.97;67.21
26657;BME280;14279;50.010;8.260;2024-03-08T02:58:42;100417.03;;;3.91;67.19
26657;BME280;14279;50.010;8.260;2024-03-08T03:01:08;100417.94;;;3.88;67.14
26657;BME280;14279;50.010;8.260;2024-03-08T03:03:33;100420.53;;;3.87;67.36
26657;BME280;14279;50.010;8.260;2024-03-08T03:05:58;100413.56;;;3.94;67.26
26657;BME280;14279;50.010;8.260;2024-03-08T03:08:23;100417.19;;;3.82;67.60
26657;BME280;14279;50.010;8.260;2024-03-08T03:10:49;100418.03;;;3.82;67.43
26657;BME280;14279;50.010;8.260;2024-03-08T03:13:14;100417.84;;;3.95;67.22
26657;BME280;14279;50.010;8.260;2024-03-08T03:15:40;100414.53;;;3.86;67.80
26657;BME280;14279;50.010;8.260;2024-03-08T03:18:08;100409.72;;;3.68;68.11
26657;BME280;14279;50.010;8.260;2024-03-08T03:20:34;100410.44;;;3.74;67.94
26657;BME280;14279;50.010;8.260;2024-03-08T03:23:05;100406.16;;;3.73;68.32
26657;BME280;14279;50.010;8.260;2024-03-08T03:25:33;100411.47;;;3.64;68.21
26657;BME280;14279;50.010;8.260;2024-03-08T03:28:00;100405.44;;;3.65;68.37
26657;BME280;14279;50.010;8.260;2024-03-08T03:30:25;100404.75;;;3.55;68.85
26657;BME280;14279;50.010;8.260;2024-03-08T03:32:59;100400.28;;;3.65;68.57
26657;BME280;14279;50.010;8.260;2024-03-08T03:35:25;100402.03;;;3.65;68.63
26657;BME280;14279;50.010;8.260;2024-03-08T03:37:51;100404.59;;;3.65;68.64
26657;BME280;14279;50.010;8.260;2024-03-08T03:40:27;100399.41;;;3.66;68.60
26657;BME280;14279;50.010;8.260;2024-03-08T03:42:53;100401.16;;;3.66;68.22
26657;BME280;14279;50.010;8.260;2024-03-08T03:45:18;100394.31;;;3.65;68.84
26657;BME280;14279;50.010;8.260;2024-03-08T03:47:45;100397.03;;;3.55;68.63
26657;BME280;14279;50.010;8.260;2024-03-08T03:50:10;100402.81;;;3.68;68.42
26657;BME280;14279;50.010;8.260;2024-03-08T03:52:36;100399.59;;;3.55;68.90
26657;BME280;14279;50.010;8.260;2024-03-08T03:55:01;100397.06;;;3.52;68.91
26657;BME280;14279;50.010;8.260;2024-03-08T03:57:26;100393.56;;;3.56;69.06
26657;BME280;14279;50.010;8.260;2024-03-08T03:59:51;100398.03;;;3.48;69.32
26657;BME280;14279;50.010;8.260;2024-03-08T04:02:17;100396.84;;;3.66;68.84
26657;BME280;14279;50.010;8.260;2024-03-08T04:04:42;100396.88;;;3.63;69.04
26657;BME280;14279;50.010;8.260;2024-03-08T04:07:09;100400.41;;;3.59;69.20
26657;BME280;14279;50.010;8.260;2024-03-08T04:09:35;100391.97;;;3.49;69.26
26657;BME280;14279;50.010;8.260;2024-03-08T04:12:00;100393.56;;;3.58;69.30
26657;BME280;14279;50.010;8.260;2024-03-08T04:14:26;100392.75;;;3.54;69.31
26657;BME280;14279;50.010;8.260;2024-03-08T04:16:51;100391.03;;;3.55;69.53
26657;BME280;14279;50.010;8.260;2024-03-08T04:19:18;100386.06;;;3.42;69.97
26657;BME280;14279;50.010;8.260;2024-03-08T04:21:44;100386.91;;;3.44;69.64
26657;BME280;14279;50.010;8.260;2024-03-08T04:24:09;100386.84;;;3.48;69.66
26657;BME280;14279;50.010;8.260;2024-03-08T04:26:35;100386.06;;;3.44;69.88
26657;BME280;14279;50.010;8.260;2024-03-08T04:29:00;100381.75;;;3.44;70.03
26657;BME280;14279;50.010;8.260;2024-03-08T04:31:26;100387.13;;;3.30;70.39
26657;BME280;14279;50.010;8.260;2024-03-08T04:33:52;100389.59;;;3.37;70.38
26657;BME280;14279;50.010;8.260;2024-03-08T04:36:17;100378.44;;;3.38;70.05
26657;BME280;14279;50.010;8.260;2024-03-08T04:38:42;100382.72;;;3.37;69.94
26657;BME280;14279;50.010;8.260;2024-03-08T04:41:08;100386.16;;;3.38;70.26
26657;BME280;14279;50.010;8.260;2024-03-08T04:43:34;100381.84;;;3.40;70.38
26657;BME280;14279;50.010;8.260;2024-03-08T04:45:59;100377.63;;;3.36;70.15
26657;BME280;14279;50.010;8.260;2024-03-08T04:48:24;100379.44;;;3.27;70.83
26657;BME280;14279;50.010;8.260;2024-03-08T04:50:52;100375.31;;;3.19;70.63
26657;BME280;14279;50.010;8.260;2024-03-08T04:53:18;100369.19;;;3.26;70.69
26657;BME280;14279;50.010;8.260;2024-03-08T04:55:43;100366.78;;;3.13;71.01
26657;BME280;14279;50.010;8.260;2024-03-08T04:58:09;100365.38;;;2.95;71.14
26657;BME280;14279;50.010;8.260;2024-03-08T05:00:34;100368.00;;;2.91;71.80
26657;BME280;14279;50.010;8.260;2024-03-08T05:03:00;100367.28;;;2.81;71.96
26657;BME280;14279;50.010;8.260;2024-03-08T05:05:25;100365.53;;;2.84;72.27
26657;BME280;14279;50.010;8.260;2024-03-08T05:07:53;100363.75;;;2.88;72.16
26657;BME280;14279;50.010;8.260;2024-03-08T05:10:18;100357.75;;;2.89;72.41
26657;BME280;14279;50.010;8.260;2024-03-08T05:12:44;100362.13;;;2.82;72.49
26657;BME280;14279;50.010;8.260;2024-03-08T05:15:09;100362.81;;;2.94;72.40
26657;BME280;14279;50.010;8.260;2024-03-08T05:17:35;100355.28;;;2.81;72.82
26657;BME280;14279;50.010;8.260;2024-03-08T05:20:00;100364.66;;;2.85;72.55
26657;BME280;14279;50.010;8.260;2024-03-08T05:22:25;100357.06;;;2.76;72.61
26657;BME280;14279;50.010;8.260;2024-03-08T05:24:51;100358.75;;;2.77;72.98
26657;BME280;14279;50.010;8.260;2024-03-08T05:27:16;100359.41;;;2.92;72.33
26657;BME280;14279;50.010;8.260;2024-03-08T05:29:42;100354.88;;;3.09;72.07
26657;BME280;14279;50.010;8.260;2024-03-08T05:32:07;100353.25;;;3.02;72.24
26657;BME280;14279;50.010;8.260;2024-03-08T05:34:32;100356.63;;;3.06;72.38
26657;BME280;14279;50.010;8.260;2024-03-08T05:36:57;100359.16;;;3.10;71.99
26657;BME280;14279;50.010;8.260;2024-03-08T05:39:23;100351.34;;;3.13;72.12
26657;BME280;14279;50.010;8.260;2024-03-08T05:41:49;100351.56;;;3.01;72.55
26657;BME280;14279;50.010;8.260;2024-03-08T05:44:15;100356.75;;;2.98;72.17
26657;BME280;14279;50.010;8.260;2024-03-08T05:46:43;100348.16;;;2.99;72.04
26657;BME280;14279;50.010;8.260;2024-03-08T05:49:09;100348.25;;;2.93;72.56
26657;BME280;14279;50.010;8.260;2024-03-08T05:51:36;100348.03;;;3.07;72.43
26657;BME280;14279;50.010;8.260;2024-03-08T05:54:02;100341.94;;;3.14;72.22
26657;BME280;14279;50.010;8.260;2024-03-08T05:56:28;100340.28;;;3.10;72.73
26657;BME280;14279;50.010;8.260;2024-03-08T05:58:54;100341.22;;;3.04;72.73
26657;BME280;14279;50.010;8.260;2024-03-08T06:01:19;100343.69;;;3.12;72.80
26657;BME280;14279;50.010;8.260;2024-03-08T06:03:44;100337.13;;;2.92;73.45
26657;BME280;14279;50.010;8.260;2024-03-08T06:06:13;100342.03;;;3.08;72.98
26657;BME280;14279;50.010;8.260;2024-03-08T06:08:39;100337.78;;;3.04;73.04
26657;BME280;14279;50.010;8.260;2024-03-08T06:11:04;100336.91;;;3.06;72.93
26657;BME280;14279;50.010;8.260;2024-03-08T06:13:33;100334.25;;;3.12;72.70
26657;BME280;14279;50.010;8.260;2024-03-08T06:15:59;100334.25;;;3.12;72.79
26657;BME280;14279;50.010;8.260;2024-03-08T06:18:25;100335.13;;;3.11;72.82
26657;BME280;14279;50.010;8.260;2024-03-08T06:20:51;100328.28;;;3.09;73.17
26657;BME280;14279;50.010;8.260;2024-03-08T06:23:16;100337.59;;;3.18;73.01
26657;BME280;14279;50.010;8.260;2024-03-08T06:25:43;100334.88;;;3.25;72.73
26657;BME280;14279;50.010;8.260;2024-03-08T06:28:09;100334.13;;;3.19;73.05
26657;BME280;14279;50.010;8.260;2024-03-08T06:30:34;100326.59;;;3.59;73.56
26657;BME280;14279;50.010;8.260;2024-03-08T06:32:59;100327.63;;;3.49;71.80
26657;BME280;14279;50.010;8.260;2024-03-08T06:35:25;100327.47;;;3.58;71.68
26657;BME280;14279;50.010;8.260;2024-03-08T06:37:50;100328.16;;;3.68;71.27
26657;BME280;14279;50.010;8.260;2024-03-08T06:40:15;100322.94;;;3.73;71.20
26657;BME280;14279;50.010;8.260;2024-03-08T06:42:41;100325.31;;;3.82;71.15
26657;BME280;14279;50.010;8.260;2024-03-08T06:45:06;100325.28;;;3.85;70.72
26657;BME280;14279;50.010;8.260;2024-03-08T06:47:34;100323.94;;;3.64;71.06
26657;BME280;14279;50.010;8.260;2024-03-08T06:49:59;100328.97;;;3.70;71.37
26657;BME280;14279;50.010;8.260;2024-03-08T06:52:24;100321.72;;;3.91;71.01
26657;BME280;14279;50.010;8.260;2024-03-08T06:54:50;100319.69;;;4.09;70.32
26657;BME280;14279;50.010;8.260;2024-03-08T06:57:17;100321.28;;;4.13;69.89
26657;BME280;14279;50.010;8.260;2024-03-08T06:59:42;100316.97;;;4.15;69.87
26657;BME280;14279;50.010;8.260;2024-03-08T07:02:08;100318.72;;;4.14;69.29
26657;BME280;14279;50.010;8.260;2024-03-08T07:04:36;100318.00;;;4.08;69.65
26657;BME280;14279;50.010;8.260;2024-03-08T07:07:06;100319.16;;;4.33;69.14
26657;BME280;14279;50.010;8.260;2024-03-08T07:09:35;100318.50;;;4.25;69.13
26657;BME280;14279;50.010;8.260;2024-03-08T07:12:01;100317.84;;;4.15;69.50
26657;BME280;14279;50.010;8.260;2024-03-08T07:14:26;100320.00;;;3.91;69.73
26657;BME280;14279;50.010;8.260;2024-03-08T07:16:52;100313.97;;;3.93;69.66
26657;BME280;14279;50.010;8.260;2024-03-08T07:19:17;100318.75;;;4.11;69.75
26657;BME280;14279;50.010;8.260;2024-03-08T07:21:44;100315.47;;;4.03;69.34
26657;BME280;14279;50.010;8.260;2024-03-08T07:24:10;100313.94;;;3.94;69.44
26657;BME280;14279;50.010;8.260;2024-03-08T07:26:53;100310.31;;;4.04;69.60
26657;BME280;14279;50.010;8.260;2024-03-08T07:29:20;100310.28;;;4.06;69.41
26657;BME280;14279;50.010;8.260;2024-03-08T07:31:46;100310.13;;;4.14;68.90
26657;BME280;14279;50.010;8.260;2024-03-08T07:34:30;100307.13;;;4.34;68.49
26657;BME280;14279;50.010;8.260;2024-03-08T07:36:57;100309.88;;;4.25;68.49
26657;BME280;14279;50.010;8.260;2024-03-08T07:39:22;100302.91;;;4.31;68.79
26657;BME280;14279;50.010;8.260;2024-03-08T07:41:49;100298.03;;;4.17;68.65
26657;BME280;14279;50.010;8.260;2024-03-08T07:44:14;100292.31;;;4.03;68.96
26657;BME280;14279;50.010;8.260;2024-03-08T07:46:39;100295.97;;;3.91;69.54
26657;BME280;14279;50.010;8.260;2024-03-08T07:49:06;100299.97;;;4.08;69.28
26657;BME280;14279;50.010;8.260;2024-03-08T07:51:31;100291.91;;;4.21;69.07
26657;BME280;14279;50.010;8.260;2024-03-08T07:53:57;100295.94;;;4.35;68.48
26657;BME280;14279;50.010;8.260;2024-03-08T07:56:22;100286.63;;;4.29;68.47
26657;BME280;14279;50.010;8.260;2024-03-08T07:58:47;100289.91;;;4.36;68.48
26657;BME280;14279;50.010;8.260;2024-03-08T08:01:19;100285.53;;;4.40;67.75
26657;BME280;14279;50.010;8.260;2024-03-08T08:03:45;100283.16;;;4.30;68.37
26657;BME280;14279;50.010;8.260;2024-03-08T08:06:10;100285.56;;;4.38;68.69
26657;BME280;14279;50.010;8.260;2024-03-08T08:08:44;100282.94;;;4.41;67.92
26657;BME280;14279;50.010;8.260;2024-03-08T08:11:09;100278.63;;;4.42;67.85
26657;BME280;14279;50.010;8.260;2024-03-08T08:13:36;100274.91;;;4.54;68.25
26657;BME280;14279;50.010;8.260;2024-03-08T08:16:03;100271.31;;;4.61;67.79
26657;BME280;14279;50.010;8.260;2024-03-08T08:18:29;100269.63;;;4.96;67.38
26657;BME280;14279;50.010;8.260;2024-03-08T08:20:55;100263.78;;;4.89;66.32
26657;BME280;14279;50.010;8.260;2024-03-08T08:23:21;100269.56;;;4.99;66.01
26657;BME280;14279;50.010;8.260;2024-03-08T08:25:46;100263.78;;;4.89;66.13
26657;BME280;14279;50.010;8.260;2024-03-08T08:28:15;100254.88;;;5.03;65.99
26657;BME280;14279;50.010;8.260;2024-03-08T08:30:42;100247.66;;;5.16;65.10
26657;BME280;14279;50.010;8.260;2024-03-08T08:33:10;100257.78;;;5.23;65.02
26657;BME280;14279;50.010;8.260;2024-03-08T08:35:36;100246.16;;;5.40;64.63
26657;BME280;14279;50.010;8.260;2024-03-08T08:38:03;100238.72;;;5.61;63.96
26657;BME280;14279;50.010;8.260;2024-03-08T08:40:29;100234.03;;;5.75;63.28
26657;BME280;14279;50.010;8.260;2024-03-08T08:42:56;100231.75;;;5.64;63.11
26657;BME280;14279;50.010;8.260;2024-03-08T08:45:22;100233.00;;;5.81;63.27
26657;BME280;14279;50.010;8.260;2024-03-08T08:47:48;100226.78;;;5.88;63.04
26657;BME280;14279;50.010;8.260;2024-03-08T08:50:14;100222.91;;;5.73;63.29
26657;BME280;14279;50.010;8.260;2024-03-08T08:52:41;100221.81;;;5.50;63.58
26657;BME280;14279;50.010;8.260;2024-03-08T08:55:08;100216.28;;;5.63;63.30
26657;BME280;14279;50.010;8.260;2024-03-08T08:57:34;100216.06;;;5.70;63.06
26657;BME280;14279;50.010;8.260;2024-03-08T09:00:00;100210.47;;;5.86;62.65
26657;BME280;14279;50.010;8.260;2024-03-08T09:02:26;100221.88;;;5.79;62.53
26657;BME280;14279;50.010;8.260;2024-03-08T09:04:51;100212.00;;;5.30;63.75
26657;BME280;14279;50.010;8.260;2024-03-08T09:07:37;100214.53;;;5.32;64.19
26657;BME280;14279;50.010;8.260;2024-03-08T09:10:11;100207.50;;;5.68;63.03
26657;BME280;14279;50.010;8.260;2024-03-08T09:12:40;100210.72;;;5.77;63.30
26657;BME280;14279;50.010;8.260;2024-03-08T09:15:06;100198.25;;;5.91;62.76
26657;BME280;14279;50.010;8.260;2024-03-08T09:17:36;100193.47;;;5.79;62.80
26657;BME280;14279;50.010;8.260;2024-03-08T09:20:01;100193.91;;;5.63;63.02
26657;BME280;14279;50.010;8.260;2024-03-08T09:22:28;100191.28;;;5.95;62.74
26657;BME280;14279;50.010;8.260;2024-03-08T09:24:53;100181.47;;;6.06;62.28
26657;BME280;14279;50.010;8.260;2024-03-08T09:27:18;100176.94;;;6.14;61.86
26657;BME280;14279;50.010;8.260;2024-03-08T09:29:44;100170.63;;;6.23;61.64
26657;BME280;14279;50.010;8.260;2024-03-08T09:32:10;100161.75;;;6.04;62.07
26657;BME280;14279;50.010;8.260;2024-03-08T09:34:37;100169.88;;;5.90;62.43
26657;BME280;14279;50.010;8.260;2024-03-08T09:37:02;100151.41;;;6.04;61.82
26657;BME280;14279;50.010;8.260;2024-03-08T09:39:29;100155.53;;;6.09;61.94
26657;BME280;14279;50.010;8.260;2024-03-08T09:41:54;100148.94;;;5.99;61.71
26657;BME280;14279;50.010;8.260;2024-03-08T09:44:20;100145.59;;;5.95;61.74
26657;BME280;14279;50.010;8.260;2024-03-08T09:46:46;100141.00;;;6.07;61.86
26657;BME280;14279;50.010;8.260;2024-03-08T09:49:16;100137.75;;;5.98;61.80
26657;BME280;14279;50.010;8.260;2024-03-08T09:51:41;100130.13;;;6.24;61.55
26657;BME280;14279;50.010;8.260;2024-03-08T09:54:07;100126.16;;;6.40;61.14
26657;BME280;14279;50.010;8.260;2024-03-08T09:56:34;100127.56;;;6.49;59.96
26657;BME280;14279;50.010;8.260;2024-03-08T09:59:00;100120.63;;;6.51;60.46
26657;BME280;14279;50.010;8.260;2024-03-08T10:01:48;100108.38;;;6.82;59.35
26657;BME280;14279;50.010;8.260;2024-03-08T10:04:13;100102.47;;;6.78;59.83
26657;BME280;14279;50.010;8.260;2024-03-08T10:06:42;100095.72;;;6.74;59.22
26657;BME280;14279;50.010;8.260;2024-03-08T10:09:08;100100.63;;;6.82;59.25
26657;BME280;14279;50.010;8.260;2024-03-08T10:11:35;100098.84;;;7.07;57.97
26657;BME280;14279;50.010;8.260;2024-03-08T10:14:00;100092.22;;;7.24;57.40
26657;BME280;14279;50.010;8.260;2024-03-08T10:16:29;100091.78;;;7.13;57.41
26657;BME280;14279;50.010;8.260;2024-03-08T10:18:56;100093.34;;;7.17;58.12
26657;BME280;14279;50.010;8.260;2024-03-08T10:21:22;100085.09;;;7.07;57.30
26657;BME280;14279;50.010;8.260;2024-03-08T10:23:48;100083.69;;;7.46;57.09
26657;BME280;14279;50.010;8.260;2024-03-08T10:26:17;100082.91;;;7.66;55.87
26657;BME280;14279;50.010;8.260;2024-03-08T10:28:45;100080.50;;;7.61;55.42
26657;BME280;14279;50.010;8.260;2024-03-08T10:31:13;100079.19;;;7.73;54.83
26657;BME280;14279;50.010;8.260;2024-03-08T10:33:38;100072.16;;;7.97;54.06
26657;BME280;14279;50.010;8.260;2024-03-08T10:36:06;100071.22;;;7.78;53.67
26657;BME280;14279;50.010;8.260;2024-03-08T10:38:38;100063.19;;;8.06;53.39
26657;BME280;14279;50.010;8.260;2024-03-08T10:41:07;100062.25;;;8.30;53.31
26657;BME280;14279;50.010;8.260;2024-03-08T10:46:30;100053.34;;;8.57;51.37
26657;BME280;14279;50.010;8.260;2024-03-08T10:48:57;100049.88;;;8.57;51.04
26657;BME280;14279;50.010;8.260;2024-03-08T10:51:28;100041.81;;;8.42;51.26
26657;BME280;14279;50.010;8.260;2024-03-08T10:53:56;100039.72;;;8.52;51.21
26657;BME280;14279;50.010;8.260;2024-03-08T10:56:22;100053.03;;;8.22;51.85
26657;BME280;14279;50.010;8.260;2024-03-08T10:58:48;100038.78;;;7.90;52.12
26657;BME280;14279;50.010;8.260;2024-03-08T11:01:14;100038.44;;;8.20;51.57
26657;BME280;14279;50.010;8.260;2024-03-08T11:06:06;100027.88;;;8.86;50.93
26657;BME280;14279;50.010;8.260;2024-03-08T11:08:33;100020.09;;;8.86;50.90
26657;BME280;14279;50.010;8.260;2024-03-08T11:10:59;100019.34;;;8.83;49.94
26657;BME280;14279;50.010;8.260;2024-03-08T11:13:42;100006.78;;;8.32;50.58
26657;BME280;14279;50.010;8.260;2024-03-08T11:16:11;100014.06;;;8.45;51.28
26657;BME280;14279;50.010;8.260;2024-03-08T11:18:39;100017.91;;;8.36;51.38
26657;BME280;14279;50.010;8.260;2024-03-08T11:21:08;100006.75;;;8.34;51.40
26657;BME280;14279;50.010;8.260;2024-03-08T11:23:37;100009.84;;;8.21;51.88
26657;BME280;14279;50.010;8.260;2024-03-08T11:26:03;100002.69;;;8.49;51.58
26657;BME280;14279;50.010;8.260;2024-03-08T11:28:32;99997.81;;;8.81;49.99
26657;BME280;14279;50.010;8.260;2024-03-08T11:33:27;99996.56;;;9.09;49.75
26657;BME280;14279;50.010;8.260;2024-03-08T11:36:12;99994.75;;;9.30;49.71
26657;BME280;14279;50.010;8.260;2024-03-08T11:38:45;99992.72;;;9.54;48.61
26657;BME280;14279;50.010;8.260;2024-03-08T11:41:14;99985.84;;;9.53;48.67
26657;BME280;14279;50.010;8.260;2024-03-08T11:43:40;99990.38;;;9.67;48.47
26657;BME280;14279;50.010;8.260;2024-03-08T11:46:10;99976.69;;;9.46;48.94
26657;BME280;14279;50.010;8.260;2024-03-08T11:48:41;99979.16;;;9.30;49.10
26657;BME280;14279;50.010;8.260;2024-03-08T11:51:13;99972.19;;;9.30;49.38
26657;BME280;14279;50.010;8.260;2024-03-08T11:53:39;99972.91;;;9.71;48.32
26657;BME280;14279;50.010;8.260;2024-03-08T11:56:10;99961.50;;;9.56;47.77
26657;BME280;14279;50.010;8.260;2024-03-08T11:58:37;99963.34;;;9.71;47.66
26657;BME280;14279;50.010;8.260;2024-03-08T12:01:04;99959.28;;;9.83;47.47
26657;BME280;14279;50.010;8.260;2024-03-08T12:06:11;99959.91;;;9.88;47.67
26657;BME280;14279;50.010;8.260;2024-03-08T12:09:00;99959.22;;;10.02;47.51
26657;BME280;14279;50.010;8.260;2024-03-08T12:11:53;99942.00;;;10.17;47.54
26657;BME280;14279;50.010;8.260;2024-03-08T12:14:18;99939.72;;;9.93;47.50
26657;BME280;14279;50.010;8.260;2024-03-08T12:16:44;99942.91;;;10.16;47.32
26657;BME280;14279;50.010;8.260;2024-03-08T12:19:10;99941.19;;;10.33;47.04
26657;BME280;14279;50.010;8.260;2024-03-08T12:21:35;99929.38;;;9.92;47.50
26657;BME280;14279;50.010;8.260;2024-03-08T12:24:03;99927.91;;;9.51;48.23
26657;BME280;14279;50.010;8.260;2024-03-08T12:33:31;99922.41;;;9.40;48.89
26657;BME280;14279;50.010;8.260;2024-03-08T12:36:35;99922.97;;;9.82;48.74
26657;BME280;14279;50.010;8.260;2024-03-08T12:43:34;99905.28;;;10.57;47.87
26657;BME280;14279;50.010;8.260;2024-03-08T12:46:00;99909.28;;;10.47;48.13
26657;BME280;14279;50.010;8.260;2024-03-08T12:48:25;99908.66;;;10.59;47.25
26657;BME280;14279;50.010;8.260;2024-03-08T12:50:51;99895.34;;;10.48;46.96
26657;BME280;14279;50.010;8.260;2024-03-08T12:53:17;99896.44;;;10.44;46.74
26657;BME280;14279;50.010;8.260;2024-03-08T12:55:42;99884.97;;;10.80;47.09
26657;BME280;14279;50.010;8.260;2024-03-08T12:58:10;99887.97;;;10.72;47.14
26657;BME280;14279;50.010;8.260;2024-03-08T13:00:36;99880.00;;;10.59;47.12
26657;BME280;14279;50.010;8.260;2024-03-08T13:03:10;99885.41;;;10.38;46.98
26657;BME280;14279;50.010;8.260;2024-03-08T13:05:37;99877.22;;;10.78;47.27
26657;BME280;14279;50.010;8.260;2024-03-08T13:08:07;99870.09;;;10.82;47.78
26657;BME280;14279;50.010;8.260;2024-03-08T13:10:54;99868.44;;;10.65;46.97
26657;BME280;14279;50.010;8.260;2024-03-08T13:13:19;99869.53;;;10.77;46.73
26657;BME280;14279;50.010;8.260;2024-03-08T13:15:44;99865.13;;;10.93;47.02
26657;BME280;14279;50.010;8.260;2024-03-08T13:18:10;99858.94;;;10.80;46.83
26657;BME280;14279;50.010;8.260;2024-03-08T13:20:36;99856.06;;;11.31;46.24
26657;BME280;14279;50.010;8.260;2024-03-08T13:23:04;99847.78;;;11.24;45.93